Time;durP1;ratioP1;P1;durP2;ratioP2;P2;SDS_P1;SDS_P2;PMS_P1;PMS_P2;Temp;Humidity;BMP_temperature;BMP_pressure;BME280_temperature;BME280_humidity;BME280_pressure;Samples;Min_cycle;Max_cycle;Signal;HPM_P1;HPM_P2
2023/07/30 00:01:37;;;;;;;5.10;3.47;;;;;;;;;;5061249;28;20313;-64
2023/07/30 00:04:09;;;;;;;3.90;2.70;;;;;;;;;;5061243;28;20221;-65
2023/07/30 00:06:36;;;;;;;3.00;2.70;;;;;;;;;;5061257;28;20654;-65
2023/07/30 00:09:07;;;;;;;2.97;2.67;;;;;;;;;;5060829;28;20260;-65
2023/07/30 00:11:36;;;;;;;3.83;2.80;;;;;;;;;;5061183;28;20678;-65
2023/07/30 00:14:04;;;;;;;4.03;2.80;;;;;;;;;;5061272;28;20220;-65
2023/07/30 00:16:33;;;;;;;4.90;3.07;;;;;;;;;;5061216;28;20226;-65
2023/07/30 00:19:01;;;;;;;3.17;2.83;;;;;;;;;;5060904;28;20289;-64
2023/07/30 00:21:31;;;;;;;2.93;2.47;;;;;;;;;;5060886;28;20262;-65
2023/07/30 00:23:59;;;;;;;3.53;2.60;;;;;;;;;;5060583;28;20216;-65
2023/07/30 00:26:28;;;;;;;7.53;3.20;;;;;;;;;;5060755;28;20213;-65
2023/07/30 00:28:56;;;;;;;3.27;2.87;;;;;;;;;;5061016;28;20272;-65
2023/07/30 00:31:24;;;;;;;3.27;2.43;;;;;;;;;;5060488;28;20594;-65
2023/07/30 00:33:53;;;;;;;3.53;2.40;;;;;;;;;;5060564;28;20217;-66
2023/07/30 00:36:21;;;;;;;3.63;2.93;;;;;;;;;;5061016;28;20670;-64
2023/07/30 00:38:48;;;;;;;3.00;2.70;;;;;;;;;;5060539;28;20226;-65
2023/07/30 00:41:16;;;;;;;3.40;2.90;;;;;;;;;;5060530;28;20222;-65
2023/07/30 00:43:45;;;;;;;4.53;2.57;;;;;;;;;;5060704;28;20207;-65
2023/07/30 00:46:12;;;;;;;4.37;3.00;;;;;;;;;;5060665;28;20209;-65
2023/07/30 00:48:40;;;;;;;4.60;2.50;;;;;;;;;;5060218;28;20210;-65
2023/07/30 00:51:10;;;;;;;3.67;2.97;;;;;;;;;;5060381;28;20782;-65
2023/07/30 00:53:37;;;;;;;2.87;2.57;;;;;;;;;;5060008;28;20644;-66
2023/07/30 00:56:05;;;;;;;5.90;2.97;;;;;;;;;;5060127;28;20246;-65
2023/07/30 00:58:33;;;;;;;4.37;3.10;;;;;;;;;;5060459;28;20217;-65
2023/07/30 01:01:01;;;;;;;4.20;3.30;;;;;;;;;;5060165;28;20697;-64
2023/07/30 01:03:29;;;;;;;4.07;3.17;;;;;;;;;;5060420;28;20219;-64
2023/07/30 01:05:57;;;;;;;4.03;2.90;;;;;;;;;;5060190;28;20211;-63
2023/07/30 01:08:26;;;;;;;3.07;2.67;;;;;;;;;;5059801;28;20210;-65
2023/07/30 01:10:54;;;;;;;3.10;2.50;;;;;;;;;;5060127;28;20232;-65
2023/07/30 01:13:22;;;;;;;3.20;2.73;;;;;;;;;;5059908;28;20243;-65
2023/07/30 01:15:50;;;;;;;3.10;2.80;;;;;;;;;;5059948;28;20212;-65
2023/07/30 01:18:18;;;;;;;3.03;2.73;;;;;;;;;;5060072;28;20203;-65
2023/07/30 01:20:45;;;;;;;3.80;2.70;;;;;;;;;;5059903;28;20294;-64
2023/07/30 01:23:15;;;;;;;2.90;2.40;;;;;;;;;;5059587;28;20562;-65
2023/07/30 01:25:43;;;;;;;3.17;2.80;;;;;;;;;;5059986;28;20207;-65
2023/07/30 01:28:15;;;;;;;4.57;3.00;;;;;;;;;;5059616;28;20202;-65
2023/07/30 01:30:42;;;;;;;3.17;2.67;;;;;;;;;;5059530;28;20227;-63
2023/07/30 01:33:11;;;;;;;2.63;2.40;;;;;;;;;;5059878;28;20255;-65
2023/07/30 01:35:39;;;;;;;3.73;2.60;;;;;;;;;;5059713;28;20211;-64
2023/07/30 01:38:07;;;;;;;4.50;2.70;;;;;;;;;;5059410;28;20209;-63
2023/07/30 01:40:36;;;;;;;3.17;2.87;;;;;;;;;;5059194;28;20231;-65
2023/07/30 01:43:04;;;;;;;4.27;3.10;;;;;;;;;;5059639;28;20654;-65
2023/07/30 01:45:32;;;;;;;4.33;2.33;;;;;;;;;;5059591;28;20217;-65
2023/07/30 01:48:00;;;;;;;3.17;2.50;;;;;;;;;;5059268;28;20547;-63
2023/07/30 01:50:27;;;;;;;4.83;2.87;;;;;;;;;;5059199;28;20627;-64
2023/07/30 01:52:55;;;;;;;3.57;2.90;;;;;;;;;;5058925;28;20202;-64
2023/07/30 01:55:23;;;;;;;3.47;2.70;;;;;;;;;;5059023;28;20322;-64
2023/07/30 01:57:52;;;;;;;3.30;3.00;;;;;;;;;;5059384;28;20203;-64
2023/07/30 02:00:20;;;;;;;3.93;3.00;;;;;;;;;;5058572;28;20227;-64
2023/07/30 02:02:48;;;;;;;3.03;2.80;;;;;;;;;;5059226;28;20227;-63
2023/07/30 02:05:16;;;;;;;4.53;2.80;;;;;;;;;;5059107;28;20210;-64
2023/07/30 02:07:43;;;;;;;5.20;3.10;;;;;;;;;;5058876;28;20207;-64
2023/07/30 02:10:11;;;;;;;4.07;3.10;;;;;;;;;;5058890;28;20230;-65
2023/07/30 02:12:39;;;;;;;4.07;3.07;;;;;;;;;;5058836;28;20320;-65
2023/07/30 02:15:09;;;;;;;4.07;2.90;;;;;;;;;;5058838;28;20573;-64
2023/07/30 02:17:37;;;;;;;3.37;2.80;;;;;;;;;;5058760;28;20290;-65
2023/07/30 02:20:05;;;;;;;5.47;3.37;;;;;;;;;;5058740;28;20223;-65
2023/07/30 02:22:33;;;;;;;4.07;3.13;;;;;;;;;;5058507;28;20231;-65
2023/07/30 02:25:00;;;;;;;3.67;3.10;;;;;;;;;;5058516;28;20211;-65
2023/07/30 02:27:28;;;;;;;3.93;2.93;;;;;;;;;;5058472;28;20210;-63
2023/07/30 02:29:56;;;;;;;4.53;2.60;;;;;;;;;;5058385;28;20231;-65
2023/07/30 02:32:25;;;;;;;3.87;3.47;;;;;;;;;;5058296;28;20205;-65
2023/07/30 02:34:53;;;;;;;4.07;3.27;;;;;;;;;;5058415;28;20221;-65
2023/07/30 02:37:21;;;;;;;5.03;3.20;;;;;;;;;;5058180;28;20225;-65
2023/07/30 02:39:48;;;;;;;4.33;2.83;;;;;;;;;;5058388;28;20238;-65
2023/07/30 02:42:16;;;;;;;7.13;3.27;;;;;;;;;;5058136;28;20227;-65
2023/07/30 02:44:44;;;;;;;3.83;2.83;;;;;;;;;;5058216;28;20715;-65
2023/07/30 02:47:12;;;;;;;3.50;3.10;;;;;;;;;;5058362;28;20217;-64
2023/07/30 02:49:41;;;;;;;3.90;3.30;;;;;;;;;;5058317;28;20213;-65
2023/07/30 02:52:08;;;;;;;4.07;2.90;;;;;;;;;;5057929;28;20209;-65
2023/07/30 02:54:36;;;;;;;4.47;2.80;;;;;;;;;;5057925;28;20797;-64
2023/07/30 02:57:04;;;;;;;3.57;3.07;;;;;;;;;;5058217;28;20206;-64
2023/07/30 02:59:35;;;;;;;3.50;3.10;;;;;;;;;;5058110;28;20665;-64
2023/07/30 03:02:04;;;;;;;2.50;2.30;;;;;;;;;;5057749;28;20230;-66
2023/07/30 03:04:32;;;;;;;5.20;3.30;;;;;;;;;;5058197;28;20206;-64
2023/07/30 03:07:01;;;;;;;3.10;2.80;;;;;;;;;;5057849;28;20209;-65
2023/07/30 03:09:29;;;;;;;5.33;3.10;;;;;;;;;;5057991;28;20210;-64
2023/07/30 03:11:57;;;;;;;3.50;3.07;;;;;;;;;;5057131;28;20214;-64
2023/07/30 03:14:25;;;;;;;3.73;3.23;;;;;;;;;;5057745;28;20207;-63
2023/07/30 03:16:52;;;;;;;4.63;3.10;;;;;;;;;;5057771;28;20297;-64
2023/07/30 03:19:20;;;;;;;3.93;3.27;;;;;;;;;;5057615;28;20210;-65
2023/07/30 03:21:48;;;;;;;3.93;3.03;;;;;;;;;;5057338;28;20677;-64
2023/07/30 03:24:17;;;;;;;3.73;2.70;;;;;;;;;;5057576;28;20206;-63
2023/07/30 03:26:45;;;;;;;3.73;2.83;;;;;;;;;;5057622;28;20677;-65
2023/07/30 03:29:13;;;;;;;5.27;3.40;;;;;;;;;;5058019;28;20656;-65
2023/07/30 03:31:40;;;;;;;3.57;3.27;;;;;;;;;;5057676;28;20219;-65
2023/07/30 03:34:09;;;;;;;5.43;3.40;;;;;;;;;;5057752;28;20239;-65
2023/07/30 03:36:37;;;;;;;4.20;2.60;;;;;;;;;;5057705;28;20211;-65
2023/07/30 03:39:05;;;;;;;3.50;3.20;;;;;;;;;;5057207;28;20635;-65
2023/07/30 03:41:35;;;;;;;3.50;3.20;;;;;;;;;;5057516;28;20229;-65
2023/07/30 03:44:03;;;;;;;3.73;3.10;;;;;;;;;;5057797;28;21828;-65
2023/07/30 03:46:31;;;;;;;3.27;2.73;;;;;;;;;;5057691;28;20202;-65
2023/07/30 03:48:59;;;;;;;4.53;3.13;;;;;;;;;;5057519;28;20727;-65
2023/07/30 03:51:26;;;;;;;5.63;3.23;;;;;;;;;;5057477;28;20265;-65
2023/07/30 03:53:54;;;;;;;6.37;3.17;;;;;;;;;;5056956;28;20206;-65
2023/07/30 03:56:22;;;;;;;4.23;3.20;;;;;;;;;;5057618;28;20219;-65
2023/07/30 03:58:51;;;;;;;2.97;2.67;;;;;;;;;;5057467;28;20277;-65
2023/07/30 04:01:19;;;;;;;4.83;3.17;;;;;;;;;;5057434;28;20262;-65
2023/07/30 04:03:46;;;;;;;3.67;3.20;;;;;;;;;;5057403;28;20231;-65
2023/07/30 04:06:14;;;;;;;4.87;3.43;;;;;;;;;;5057383;28;20239;-65
2023/07/30 04:08:43;;;;;;;4.23;2.80;;;;;;;;;;5056898;28;20676;-65
2023/07/30 04:11:10;;;;;;;3.20;2.90;;;;;;;;;;5057322;28;20234;-65
2023/07/30 04:13:38;;;;;;;3.33;2.80;;;;;;;;;;5057399;28;20237;-65
2023/07/30 04:16:07;;;;;;;3.13;2.80;;;;;;;;;;5057355;28;20227;-64
2023/07/30 04:18:35;;;;;;;3.97;2.90;;;;;;;;;;5057434;28;20252;-65
2023/07/30 04:21:03;;;;;;;6.10;3.47;;;;;;;;;;5056915;28;20669;-66
2023/07/30 04:23:31;;;;;;;3.13;2.83;;;;;;;;;;5058319;28;20790;-64
2023/07/30 04:25:58;;;;;;;3.30;3.00;;;;;;;;;;5061049;28;20661;-64
2023/07/30 04:28:26;;;;;;;4.40;3.27;;;;;;;;;;5060779;28;20643;-64
2023/07/30 04:30:54;;;;;;;2.73;2.50;;;;;;;;;;5060828;28;20232;-66
2023/07/30 04:33:23;;;;;;;3.60;3.30;;;;;;;;;;5060921;28;20207;-66
2023/07/30 04:35:51;;;;;;;5.27;3.17;;;;;;;;;;5060854;28;20288;-65
2023/07/30 04:38:19;;;;;;;4.03;2.93;;;;;;;;;;5060252;28;20217;-65
2023/07/30 04:40:46;;;;;;;5.07;3.33;;;;;;;;;;5060639;28;20585;-66
2023/07/30 04:43:14;;;;;;;5.20;3.30;;;;;;;;;;5060747;28;20705;-65
2023/07/30 04:45:43;;;;;;;3.77;3.13;;;;;;;;;;5060404;28;20304;-65
2023/07/30 04:48:10;;;;;;;3.40;3.03;;;;;;;;;;5060359;28;20228;-65
2023/07/30 04:50:41;;;;;;;3.60;3.27;;;;;;;;;;5060202;28;20219;-65
2023/07/30 04:53:09;;;;;;;4.97;3.10;;;;;;;;;;5059940;28;20619;-65
2023/07/30 04:55:37;;;;;;;3.97;3.10;;;;;;;;;;5060052;28;20259;-65
2023/07/30 04:58:05;;;;;;;6.30;3.50;;;;;;;;;;5060294;28;20242;-65
2023/07/30 05:00:32;;;;;;;3.57;3.10;;;;;;;;;;5060220;28;20229;-65
2023/07/30 05:03:00;;;;;;;3.77;3.03;;;;;;;;;;5060276;28;20226;-65
2023/07/30 05:05:28;;;;;;;3.83;2.67;;;;;;;;;;5060334;28;20249;-66
2023/07/30 05:07:57;;;;;;;2.17;2.03;;;;;;;;;;5059894;28;20213;-65
2023/07/30 05:10:25;;;;;;;3.40;2.07;;;;;;;;;;5060269;28;20234;-65
2023/07/30 05:12:54;;;;;;;1.90;1.80;;;;;;;;;;5060188;28;20203;-65
2023/07/30 05:15:22;;;;;;;1.67;1.43;;;;;;;;;;5060217;28;20243;-65
2023/07/30 05:17:50;;;;;;;1.60;1.50;;;;;;;;;;5060050;28;20597;-65
2023/07/30 05:20:18;;;;;;;1.73;1.50;;;;;;;;;;5060027;28;20288;-65
2023/07/30 05:22:45;;;;;;;2.20;2.00;;;;;;;;;;5059365;28;20226;-65
2023/07/30 05:25:15;;;;;;;2.30;2.10;;;;;;;;;;5059880;28;20208;-65
2023/07/30 05:27:42;;;;;;;2.60;1.93;;;;;;;;;;5059858;28;20207;-65
2023/07/30 05:30:11;;;;;;;4.00;2.10;;;;;;;;;;5059487;28;20245;-65
2023/07/30 05:32:38;;;;;;;2.33;2.00;;;;;;;;;;5059443;28;20212;-65
2023/07/30 05:35:07;;;;;;;2.03;1.80;;;;;;;;;;5058914;28;20215;-65
2023/07/30 05:37:33;;;;;;;4.03;2.23;;;;;;;;;;5059383;28;20212;-65
2023/07/30 05:40:01;;;;;;;1.60;1.50;;;;;;;;;;5059290;28;20238;-65
2023/07/30 05:42:30;;;;;;;2.07;1.87;;;;;;;;;;5059282;28;20208;-65
2023/07/30 05:44:58;;;;;;;2.10;1.90;;;;;;;;;;5059678;28;20298;-65
2023/07/30 05:47:28;;;;;;;1.50;1.40;;;;;;;;;;5059490;28;20215;-65
2023/07/30 05:49:56;;;;;;;3.77;1.70;;;;;;;;;;5059433;28;20276;-64
2023/07/30 05:52:24;;;;;;;2.87;2.00;;;;;;;;;;5058709;28;20205;-64
2023/07/30 05:54:51;;;;;;;2.10;1.80;;;;;;;;;;5059206;28;20230;-65
2023/07/30 05:57:19;;;;;;;1.93;1.80;;;;;;;;;;5059292;28;20206;-66
2023/07/30 05:59:48;;;;;;;2.07;1.63;;;;;;;;;;5059213;28;20219;-65
2023/07/30 06:02:16;;;;;;;1.83;1.60;;;;;;;;;;5046194;28;20214;-65
2023/07/30 06:04:44;;;;;;;1.57;1.30;;;;;;;;;;5058840;28;20254;-65
2023/07/30 06:07:11;;;;;;;1.50;1.40;;;;;;;;;;5058793;28;20298;-65
2023/07/30 06:09:39;;;;;;;1.87;1.60;;;;;;;;;;5059024;28;20209;-65
2023/07/30 06:12:07;;;;;;;2.03;1.33;;;;;;;;;;5058817;28;20649;-66
2023/07/30 06:14:35;;;;;;;1.40;1.27;;;;;;;;;;5058650;28;20260;-66
2023/07/30 06:17:04;;;;;;;1.77;1.63;;;;;;;;;;5058756;28;20581;-66
2023/07/30 06:19:32;;;;;;;1.70;1.60;;;;;;;;;;5058786;28;20656;-65
2023/07/30 06:22:00;;;;;;;1.57;1.40;;;;;;;;;;5058441;28;20316;-65
2023/07/30 06:24:30;;;;;;;1.40;1.30;;;;;;;;;;5058718;28;20237;-65
2023/07/30 06:27:01;;;;;;;1.20;1.10;;;;;;;;;;5058859;28;20248;-65
2023/07/30 06:29:29;;;;;;;1.53;1.17;;;;;;;;;;5058567;28;20271;-65
2023/07/30 06:31:56;;;;;;;2.80;1.40;;;;;;;;;;5058583;28;20209;-65
2023/07/30 06:34:26;;;;;;;4.47;1.20;;;;;;;;;;5058690;28;20200;-63
2023/07/30 06:36:53;;;;;;;1.03;0.90;;;;;;;;;;5057903;28;20711;-63
2023/07/30 06:39:21;;;;;;;0.93;0.90;;;;;;;;;;5058461;28;20205;-64
2023/07/30 06:41:49;;;;;;;2.50;1.40;;;;;;;;;;5058361;28;20355;-65
2023/07/30 06:44:17;;;;;;;5.10;1.20;;;;;;;;;;5058382;28;20313;-64
2023/07/30 06:46:44;;;;;;;1.10;1.00;;;;;;;;;;5058348;28;20270;-65
2023/07/30 06:49:12;;;;;;;1.30;0.97;;;;;;;;;;5058059;28;20289;-64
2023/07/30 06:51:41;;;;;;;1.30;1.10;;;;;;;;;;5058190;28;20226;-65
2023/07/30 06:54:09;;;;;;;1.60;0.97;;;;;;;;;;5057929;28;20226;-64
2023/07/30 06:56:37;;;;;;;1.27;1.00;;;;;;;;;;5058182;28;20274;-65
2023/07/30 06:59:05;;;;;;;1.40;1.00;;;;;;;;;;5058222;28;20207;-64
2023/07/30 07:01:33;;;;;;;1.00;1.00;;;;;;;;;;5058072;28;20234;-65
2023/07/30 07:04:00;;;;;;;2.70;1.07;;;;;;;;;;5058113;28;20330;-65
2023/07/30 07:06:28;;;;;;;2.57;1.00;;;;;;;;;;5057992;28;20206;-63
2023/07/30 07:08:57;;;;;;;0.90;0.90;;;;;;;;;;5057880;28;20232;-65
2023/07/30 07:11:25;;;;;;;2.63;0.93;;;;;;;;;;5057650;28;20730;-65
2023/07/30 07:13:53;;;;;;;2.00;1.17;;;;;;;;;;5057698;28;20211;-65
2023/07/30 07:16:21;;;;;;;1.00;1.00;;;;;;;;;;5057911;28;20297;-65
2023/07/30 07:18:49;;;;;;;1.07;0.90;;;;;;;;;;5058009;28;20233;-65
2023/07/30 07:21:17;;;;;;;1.43;0.80;;;;;;;;;;5057692;28;20300;-65
2023/07/30 07:23:44;;;;;;;2.43;0.93;;;;;;;;;;5057299;28;20261;-64
2023/07/30 07:26:14;;;;;;;0.90;0.90;;;;;;;;;;5057839;28;20245;-64
2023/07/30 07:28:41;;;;;;;2.63;1.20;;;;;;;;;;5057532;28;20289;-65
2023/07/30 07:31:09;;;;;;;1.70;1.00;;;;;;;;;;5057665;28;20233;-63
2023/07/30 07:33:37;;;;;;;1.20;1.10;;;;;;;;;;5057773;28;20744;-63
2023/07/30 07:36:06;;;;;;;2.23;1.30;;;;;;;;;;5057561;28;20210;-64
2023/07/30 07:38:33;;;;;;;1.33;1.10;;;;;;;;;;5057472;28;20216;-65
2023/07/30 07:41:01;;;;;;;1.40;1.20;;;;;;;;;;5057264;28;20309;-63
2023/07/30 07:43:30;;;;;;;3.80;1.30;;;;;;;;;;5057320;28;20239;-64
2023/07/30 07:45:58;;;;;;;1.40;1.10;;;;;;;;;;5057353;28;20220;-64
2023/07/30 07:48:26;;;;;;;3.90;1.40;;;;;;;;;;5057576;28;20299;-64
2023/07/30 07:50:54;;;;;;;1.10;1.00;;;;;;;;;;5044141;28;20241;-65
2023/07/30 07:53:22;;;;;;;1.10;1.10;;;;;;;;;;5057022;28;20209;-65
2023/07/30 07:55:49;;;;;;;1.40;1.30;;;;;;;;;;5057270;28;20236;-66
2023/07/30 07:58:17;;;;;;;1.50;1.10;;;;;;;;;;5058774;28;20207;-64
2023/07/30 08:00:46;;;;;;;1.43;1.27;;;;;;;;;;5061675;28;20230;-64
2023/07/30 08:03:14;;;;;;;1.77;1.30;;;;;;;;;;5061203;28;20634;-65
2023/07/30 08:05:42;;;;;;;1.30;1.20;;;;;;;;;;5061167;28;20261;-65
2023/07/30 08:08:09;;;;;;;1.43;1.33;;;;;;;;;;5061054;28;20218;-63
2023/07/30 08:10:39;;;;;;;2.57;1.07;;;;;;;;;;5061110;28;20226;-63
2023/07/30 08:13:08;;;;;;;1.40;1.20;;;;;;;;;;5061305;28;20208;-64
2023/07/30 08:15:36;;;;;;;2.20;1.30;;;;;;;;;;5060971;28;20210;-64
2023/07/30 08:18:05;;;;;;;2.77;1.23;;;;;;;;;;5061197;28;20210;-65
2023/07/30 08:20:33;;;;;;;1.50;1.20;;;;;;;;;;5061185;28;20265;-64
2023/07/30 08:23:00;;;;;;;2.17;1.40;;;;;;;;;;5060527;28;20316;-64
2023/07/30 08:25:28;;;;;;;1.33;1.23;;;;;;;;;;5061071;28;20273;-64
2023/07/30 08:27:56;;;;;;;3.30;1.20;;;;;;;;;;5061022;28;20210;-63
2023/07/30 08:30:24;;;;;;;2.23;1.20;;;;;;;;;;5060621;28;20783;-63
2023/07/30 08:32:51;;;;;;;2.43;1.40;;;;;;;;;;5060960;28;20212;-63
2023/07/30 08:35:21;;;;;;;1.30;1.20;;;;;;;;;;5060982;28;20212;-65
2023/07/30 08:37:48;;;;;;;1.27;1.17;;;;;;;;;;5060476;28;20210;-65
2023/07/30 08:40:16;;;;;;;1.52;1.40;;;;;;;;;;5060710;28;20223;-65
2023/07/30 08:42:45;;;;;;;1.77;1.20;;;;;;;;;;5060496;28;20659;-65
2023/07/30 08:45:12;;;;;;;2.58;1.30;;;;;;;;;;5060706;28;20231;-65
2023/07/30 08:47:40;;;;;;;0.90;0.90;;;;;;;;;;5060307;28;20647;-65
2023/07/30 08:50:09;;;;;;;1.13;1.10;;;;;;;;;;5060216;28;20223;-64
2023/07/30 08:52:38;;;;;;;1.08;1.05;;;;;;;;;;5060257;28;20239;-65
2023/07/30 08:55:07;;;;;;;1.42;1.30;;;;;;;;;;5060259;28;20291;-65
2023/07/30 08:57:34;;;;;;;1.27;1.20;;;;;;;;;;5060252;28;20216;-65
2023/07/30 09:00:04;;;;;;;1.70;1.30;;;;;;;;;;5060015;28;20273;-63
2023/07/30 09:02:35;;;;;;;2.60;1.43;;;;;;;;;;5060522;28;20214;-63
2023/07/30 09:05:04;;;;;;;1.50;1.40;;;;;;;;;;5059991;28;20245;-63
2023/07/30 09:07:32;;;;;;;1.43;1.33;;;;;;;;;;5059972;28;20301;-63
2023/07/30 09:10:01;;;;;;;2.70;1.60;;;;;;;;;;5058799;28;20225;-63
2023/07/30 09:12:32;;;;;;;1.67;1.43;;;;;;;;;;5060170;28;20215;-63
2023/07/30 09:15:00;;;;;;;1.50;1.33;;;;;;;;;;5060162;28;20281;-64
2023/07/30 09:17:28;;;;;;;1.80;1.20;;;;;;;;;;5060190;28;20209;-64
2023/07/30 09:19:56;;;;;;;1.40;1.30;;;;;;;;;;5059920;28;20758;-65
2023/07/30 09:22:27;;;;;;;1.50;1.40;;;;;;;;;;5059720;28;20217;-64
2023/07/30 09:24:55;;;;;;;1.47;1.23;;;;;;;;;;5059845;28;20755;-65
2023/07/30 09:27:26;;;;;;;1.83;1.27;;;;;;;;;;5060006;28;20211;-65
2023/07/30 09:29:54;;;;;;;1.40;1.20;;;;;;;;;;5059831;28;20230;-65
2023/07/30 09:32:26;;;;;;;1.37;1.20;;;;;;;;;;5059797;28;20209;-65
2023/07/30 09:34:54;;;;;;;2.13;1.08;;;;;;;;;;5059782;28;20212;-65
2023/07/30 09:37:23;;;;;;;1.13;1.10;;;;;;;;;;5059120;28;20244;-65
2023/07/30 09:39:50;;;;;;;1.33;1.23;;;;;;;;;;5059637;28;20253;-64
2023/07/30 09:42:18;;;;;;;1.30;1.20;;;;;;;;;;5059379;28;20297;-63
2023/07/30 09:44:49;;;;;;;2.77;1.30;;;;;;;;;;5059562;28;20267;-64
2023/07/30 09:47:17;;;;;;;1.87;1.57;;;;;;;;;;5059624;28;20213;-65
2023/07/30 09:49:45;;;;;;;1.83;1.30;;;;;;;;;;5059797;28;20221;-65
2023/07/30 09:52:13;;;;;;;1.37;1.27;;;;;;;;;;5059038;28;20213;-65
2023/07/30 09:54:41;;;;;;;1.70;1.10;;;;;;;;;;5059072;28;20266;-65
2023/07/30 09:57:09;;;;;;;3.13;1.30;;;;;;;;;;5059335;28;20211;-65
2023/07/30 09:59:38;;;;;;;1.63;1.10;;;;;;;;;;5058939;28;20301;-65
2023/07/30 10:02:07;;;;;;;1.20;1.10;;;;;;;;;;5059304;28;20209;-65
2023/07/30 10:04:38;;;;;;;1.43;1.33;;;;;;;;;;5059259;28;20244;-65
2023/07/30 10:07:09;;;;;;;2.10;1.50;;;;;;;;;;5058525;28;20222;-65
2023/07/30 10:09:43;;;;;;;1.40;1.30;;;;;;;;;;5058779;28;20218;-65
2023/07/30 10:12:11;;;;;;;1.53;1.30;;;;;;;;;;5058848;28;20693;-65
2023/07/30 10:14:39;;;;;;;1.63;1.40;;;;;;;;;;5059003;28;20583;-65
2023/07/30 10:17:10;;;;;;;1.97;1.53;;;;;;;;;;5058965;28;20694;-64
2023/07/30 10:19:38;;;;;;;1.57;1.30;;;;;;;;;;5058909;28;20204;-64
2023/07/30 10:22:20;;;;;;;1.23;1.13;;;;;;;;;;5058114;28;20220;-65
2023/07/30 10:24:56;;;;;;;1.63;1.53;;;;;;;;;;5058858;28;20205;-65
2023/07/30 10:27:25;;;;;;;2.60;1.27;;;;;;;;;;5058507;28;20289;-64
2023/07/30 10:30:08;;;;;;;1.47;1.30;;;;;;;;;;5058514;28;20652;-65
2023/07/30 10:32:40;;;;;;;1.70;1.20;;;;;;;;;;5058395;28;20204;-64
2023/07/30 10:35:08;;;;;;;1.97;1.10;;;;;;;;;;5058664;28;20224;-65
2023/07/30 10:37:36;;;;;;;2.23;1.33;;;;;;;;;;5058223;28;20208;-65
2023/07/30 10:40:16;;;;;;;1.40;1.30;;;;;;;;;;5058496;28;20722;-64
2023/07/30 10:42:45;;;;;;;1.30;1.17;;;;;;;;;;5045475;28;20221;-65
2023/07/30 10:45:12;;;;;;;1.20;1.10;;;;;;;;;;5058355;28;20219;-64
2023/07/30 10:47:43;;;;;;;3.13;1.63;;;;;;;;;;5058520;28;20216;-65
2023/07/30 10:50:13;;;;;;;1.67;1.20;;;;;;;;;;5058282;28;20691;-65
2023/07/30 10:52:40;;;;;;;1.83;1.20;;;;;;;;;;5057816;28;20219;-64
2023/07/30 10:55:09;;;;;;;1.30;1.20;;;;;;;;;;5057877;28;20285;-64
2023/07/30 10:57:39;;;;;;;1.57;1.27;;;;;;;;;;5058037;28;20213;-64
2023/07/30 11:00:07;;;;;;;3.00;1.27;;;;;;;;;;5058121;28;20316;-64
2023/07/30 11:02:36;;;;;;;1.20;1.10;;;;;;;;;;5058217;28;20209;-65
2023/07/30 11:05:15;;;;;;;1.40;1.30;;;;;;;;;;5058134;28;20275;-65
2023/07/30 11:07:50;;;;;;;1.33;1.23;;;;;;;;;;5057691;28;20241;-65
2023/07/30 11:10:17;;;;;;;1.47;1.37;;;;;;;;;;5058050;28;20233;-64
2023/07/30 11:12:46;;;;;;;1.40;1.30;;;;;;;;;;5057720;28;20210;-64
2023/07/30 11:15:13;;;;;;;1.57;1.07;;;;;;;;;;5058012;28;20677;-65
2023/07/30 11:17:41;;;;;;;1.40;1.30;;;;;;;;;;5058035;28;20205;-65
2023/07/30 11:20:22;;;;;;;2.30;1.20;;;;;;;;;;5057912;28;20325;-65
2023/07/30 11:22:51;;;;;;;1.20;1.10;;;;;;;;;;5057521;28;20246;-64
2023/07/30 11:25:19;;;;;;;1.20;1.10;;;;;;;;;;5057899;28;20247;-63
2023/07/30 11:27:47;;;;;;;1.53;1.37;;;;;;;;;;5057490;28;20231;-63
2023/07/30 11:30:15;;;;;;;1.50;1.40;;;;;;;;;;5057690;28;20296;-64
2023/07/30 11:32:44;;;;;;;2.67;1.40;;;;;;;;;;5057002;28;20267;-64
2023/07/30 11:35:12;;;;;;;2.20;1.33;;;;;;;;;;5057521;28;20207;-64
2023/07/30 11:37:42;;;;;;;2.73;1.30;;;;;;;;;;5057366;28;20205;-64
2023/07/30 11:40:12;;;;;;;1.10;1.00;;;;;;;;;;5057833;28;20228;-65
2023/07/30 11:42:42;;;;;;;1.80;1.50;;;;;;;;;;5057688;28;20291;-64
2023/07/30 11:45:20;;;;;;;2.03;1.30;;;;;;;;;;5057528;28;20625;-65
2023/07/30 11:47:48;;;;;;;1.23;1.13;;;;;;;;;;5057616;28;20233;-63
2023/07/30 11:50:16;;;;;;;3.17;1.40;;;;;;;;;;5057440;28;20687;-65
2023/07/30 11:52:54;;;;;;;6.00;1.40;;;;;;;;;;5057363;28;20654;-64
2023/07/30 11:55:24;;;;;;;1.57;1.40;;;;;;;;;;5057148;28;20235;-64
2023/07/30 11:57:52;;;;;;;4.13;1.83;;;;;;;;;;5057544;28;20659;-64
2023/07/30 12:00:21;;;;;;;4.17;1.63;;;;;;;;;;5057410;28;20228;-64
2023/07/30 12:02:49;;;;;;;2.70;1.47;;;;;;;;;;5057528;28;20570;-64
2023/07/30 12:05:17;;;;;;;1.67;1.30;;;;;;;;;;5057273;28;20565;-64
2023/07/30 12:07:48;;;;;;;2.07;1.50;;;;;;;;;;5056753;28;20314;-64
2023/07/30 12:10:16;;;;;;;4.87;1.63;;;;;;;;;;5057156;28;20668;-64
2023/07/30 12:12:52;;;;;;;1.77;1.53;;;;;;;;;;5057269;28;20234;-65
2023/07/30 12:15:22;;;;;;;3.07;1.30;;;;;;;;;;5044895;28;20273;-64
2023/07/30 12:17:50;;;;;;;1.30;1.20;;;;;;;;;;5057242;28;20204;-64
2023/07/30 12:20:18;;;;;;;7.10;1.20;;;;;;;;;;5057340;28;20321;-64
2023/07/30 12:22:45;;;;;;;3.90;1.77;;;;;;;;;;5056776;28;20219;-64
2023/07/30 12:25:13;;;;;;;3.93;1.70;;;;;;;;;;5057309;28;20234;-64
2023/07/30 12:27:41;;;;;;;4.03;1.77;;;;;;;;;;5057283;28;20240;-64
2023/07/30 12:30:11;;;;;;;2.43;1.50;;;;;;;;;;5057220;28;20704;-64
2023/07/30 12:32:39;;;;;;;3.13;1.20;;;;;;;;;;5056927;28;20219;-64
2023/07/30 12:35:07;;;;;;;2.73;1.70;;;;;;;;;;5056920;28;20297;-64
2023/07/30 12:37:35;;;;;;;2.17;1.57;;;;;;;;;;5056573;28;20231;-64
2023/07/30 12:40:04;;;;;;;1.50;1.40;;;;;;;;;;5056834;28;20224;-65
2023/07/30 12:42:32;;;;;;;1.60;1.30;;;;;;;;;;5057184;28;20206;-62
2023/07/30 12:44:59;;;;;;;1.97;1.00;;;;;;;;;;5059115;28;20212;-64
2023/07/30 12:47:28;;;;;;;1.87;1.50;;;;;;;;;;5060667;28;20709;-63
2023/07/30 12:49:56;;;;;;;1.97;1.37;;;;;;;;;;5060319;28;20242;-65
2023/07/30 12:52:24;;;;;;;2.00;1.50;;;;;;;;;;5060251;28;20705;-65
2023/07/30 12:54:52;;;;;;;2.20;1.50;;;;;;;;;;5060179;28;20258;-64
2023/07/30 12:57:23;;;;;;;5.30;1.40;;;;;;;;;;5060187;28;20316;-64
2023/07/30 12:59:51;;;;;;;2.67;2.10;;;;;;;;;;5060343;28;20235;-64
2023/07/30 13:02:18;;;;;;;1.57;1.10;;;;;;;;;;5060176;28;20583;-63
2023/07/30 13:04:47;;;;;;;2.33;1.27;;;;;;;;;;5060144;28;20232;-65
2023/07/30 13:07:16;;;;;;;2.43;1.30;;;;;;;;;;5059969;28;20261;-64
2023/07/30 13:09:46;;;;;;;3.17;1.37;;;;;;;;;;5060237;28;20215;-64
2023/07/30 13:12:14;;;;;;;1.37;1.27;;;;;;;;;;5060036;28;20588;-65
2023/07/30 13:14:42;;;;;;;1.40;1.00;;;;;;;;;;5060216;28;20206;-64
2023/07/30 13:17:09;;;;;;;2.10;1.30;;;;;;;;;;5060137;28;20200;-64
2023/07/30 13:19:37;;;;;;;3.90;1.17;;;;;;;;;;5060430;28;20600;-64
2023/07/30 13:22:07;;;;;;;1.93;1.37;;;;;;;;;;5059720;28;20242;-64
2023/07/30 13:24:36;;;;;;;1.80;1.17;;;;;;;;;;5060015;28;20292;-64
2023/07/30 13:27:04;;;;;;;1.23;1.13;;;;;;;;;;5059680;28;20232;-65
2023/07/30 13:29:32;;;;;;;2.47;0.90;;;;;;;;;;5059543;28;20759;-63
2023/07/30 13:31:59;;;;;;;1.00;0.90;;;;;;;;;;5059853;28;20213;-64
2023/07/30 13:34:27;;;;;;;2.17;1.13;;;;;;;;;;5059803;28;20224;-64
2023/07/30 13:36:55;;;;;;;1.77;1.10;;;;;;;;;;5059468;28;20206;-64
2023/07/30 13:39:24;;;;;;;2.53;1.07;;;;;;;;;;5059494;28;20729;-63
2023/07/30 13:41:52;;;;;;;1.00;0.97;;;;;;;;;;5059366;28;20227;-65
2023/07/30 13:44:20;;;;;;;1.83;1.20;;;;;;;;;;5059596;28;20210;-65
2023/07/30 13:46:48;;;;;;;1.40;1.30;;;;;;;;;;5059156;28;20219;-64
2023/07/30 13:49:16;;;;;;;1.03;1.00;;;;;;;;;;5059597;28;20203;-65
2023/07/30 13:51:44;;;;;;;1.27;1.17;;;;;;;;;;5059023;28;20226;-64
2023/07/30 13:54:11;;;;;;;2.43;1.27;;;;;;;;;;5059282;28;20208;-65
2023/07/30 13:56:41;;;;;;;1.30;1.10;;;;;;;;;;5058640;28;20274;-65
2023/07/30 13:59:08;;;;;;;3.20;1.27;;;;;;;;;;5059080;28;20208;-64
2023/07/30 14:01:36;;;;;;;2.07;1.33;;;;;;;;;;5058941;28;20306;-65
2023/07/30 14:04:04;;;;;;;2.20;1.10;;;;;;;;;;5059334;28;20212;-64
2023/07/30 14:06:32;;;;;;;1.00;0.87;;;;;;;;;;5058795;28;20220;-64
2023/07/30 14:09:00;;;;;;;1.47;1.30;;;;;;;;;;5059127;28;20243;-65
2023/07/30 14:11:28;;;;;;;0.80;0.80;;;;;;;;;;5059038;28;20231;-65
2023/07/30 14:13:58;;;;;;;1.33;1.00;;;;;;;;;;5059166;28;20212;-65
2023/07/30 14:16:26;;;;;;;1.20;0.90;;;;;;;;;;5058894;28;20206;-65
2023/07/30 14:18:54;;;;;;;2.63;1.13;;;;;;;;;;5059045;28;20257;-65
2023/07/30 14:21:21;;;;;;;1.70;1.10;;;;;;;;;;5058743;28;20234;-65
2023/07/30 14:23:49;;;;;;;1.33;1.10;;;;;;;;;;5058842;28;20667;-64
2023/07/30 14:26:17;;;;;;;1.73;1.37;;;;;;;;;;5058791;28;20207;-65
2023/07/30 14:28:45;;;;;;;1.37;1.17;;;;;;;;;;5058790;28;20717;-65
2023/07/30 14:31:14;;;;;;;2.17;1.03;;;;;;;;;;5058599;28;20241;-64
2023/07/30 14:33:42;;;;;;;3.43;1.50;;;;;;;;;;5058522;28;20621;-65
2023/07/30 14:36:10;;;;;;;2.20;1.30;;;;;;;;;;5058480;28;20212;-64
2023/07/30 14:38:38;;;;;;;2.53;1.27;;;;;;;;;;5058167;28;20230;-65
2023/07/30 14:41:08;;;;;;;1.35;1.25;;;;;;;;;;5058123;28;20243;-65
2023/07/30 14:43:36;;;;;;;3.22;1.40;;;;;;;;;;5058544;28;20655;-65
2023/07/30 14:46:04;;;;;;;1.15;0.93;;;;;;;;;;5058140;28;20238;-65
2023/07/30 14:48:34;;;;;;;1.50;1.27;;;;;;;;;;5058257;28;20277;-64
2023/07/30 14:51:02;;;;;;;1.40;1.10;;;;;;;;;;5057934;28;20250;-65